sensor_id;sensor_type;location;lat;lon;timestamp;P1;durP1;ratioP1;P2;durP2;ratioP2
73980;SDS011;62348;51.412;5.436;2022-10-17T00:02:19;13.55;;;9.93;;
73980;SDS011;62348;51.412;5.436;2022-10-17T00:04:45;11.10;;;10.00;;
73980;SDS011;62348;51.412;5.436;2022-10-17T00:07:10;12.93;;;9.82;;
73980;SDS011;62348;51.412;5.436;2022-10-17T00:09:35;11.45;;;10.25;;
73980;SDS011;62348;51.412;5.436;2022-10-17T00:12:01;13.70;;;9.73;;
73980;SDS011;62348;51.412;5.436;2022-10-17T00:14:26;13.25;;;10.65;;
73980;SDS011;62348;51.412;5.436;2022-10-17T00:16:52;14.80;;;10.02;;
73980;SDS011;62348;51.412;5.436;2022-10-17T00:19:17;13.35;;;9.85;;
73980;SDS011;62348;51.412;5.436;2022-10-17T00:21:42;12.15;;;10.88;;
73980;SDS011;62348;51.412;5.436;2022-10-17T00:24:08;12.07;;;9.95;;
73980;SDS011;62348;51.412;5.436;2022-10-17T00:26:33;14.20;;;11.13;;
73980;SDS011;62348;51.412;5.436;2022-10-17T00:28:59;15.27;;;10.90;;
73980;SDS011;62348;51.412;5.436;2022-10-17T00:31:24;16.95;;;10.52;;
73980;SDS011;62348;51.412;5.436;2022-10-17T00:33:50;11.50;;;10.40;;
73980;SDS011;62348;51.412;5.436;2022-10-17T00:36:21;12.68;;;10.90;;
73980;SDS011;62348;51.412;5.436;2022-10-17T00:38:49;13.52;;;11.35;;
73980;SDS011;62348;51.412;5.436;2022-10-17T00:41:18;15.38;;;11.45;;
73980;SDS011;62348;51.412;5.436;2022-10-17T00:44:03;14.65;;;11.40;;
73980;SDS011;62348;51.412;5.436;2022-10-17T00:46:48;12.13;;;10.43;;
73980;SDS011;62348;51.412;5.436;2022-10-17T00:49:13;17.50;;;13.00;;
73980;SDS011;62348;51.412;5.436;2022-10-17T00:51:44;14.48;;;11.00;;
73980;SDS011;62348;51.412;5.436;2022-10-17T00:54:13;12.48;;;11.00;;
73980;SDS011;62348;51.412;5.436;2022-10-17T00:56:41;12.95;;;11.13;;
73980;SDS011;62348;51.412;5.436;2022-10-17T00:59:08;12.90;;;10.88;;
73980;SDS011;62348;51.412;5.436;2022-10-17T01:01:36;12.40;;;11.02;;
73980;SDS011;62348;51.412;5.436;2022-10-17T01:04:02;14.32;;;11.25;;
73980;SDS011;62348;51.412;5.436;2022-10-17T01:06:27;12.82;;;11.27;;
73980;SDS011;62348;51.412;5.436;2022-10-17T01:08:52;13.30;;;11.43;;
73980;SDS011;62348;51.412;5.436;2022-10-17T01:11:21;14.27;;;12.15;;
73980;SDS011;62348;51.412;5.436;2022-10-17T01:13:54;14.32;;;12.38;;
73980;SDS011;62348;51.412;5.436;2022-10-17T01:21:59;18.70;;;12.90;;
73980;SDS011;62348;51.412;5.436;2022-10-17T01:24:32;16.48;;;12.68;;
73980;SDS011;62348;51.412;5.436;2022-10-17T01:33:02;17.85;;;13.98;;
73980;SDS011;62348;51.412;5.436;2022-10-17T01:35:51;16.88;;;13.68;;
73980;SDS011;62348;51.412;5.436;2022-10-17T01:38:32;16.58;;;13.38;;
73980;SDS011;62348;51.412;5.436;2022-10-17T01:41:07;16.60;;;13.95;;
73980;SDS011;62348;51.412;5.436;2022-10-17T01:43:39;18.17;;;14.30;;
73980;SDS011;62348;51.412;5.436;2022-10-17T01:46:27;16.65;;;13.52;;
73980;SDS011;62348;51.412;5.436;2022-10-17T01:48:59;16.83;;;14.18;;
73980;SDS011;62348;51.412;5.436;2022-10-17T01:51:36;18.38;;;13.73;;
73980;SDS011;62348;51.412;5.436;2022-10-17T01:54:26;20.70;;;14.27;;
73980;SDS011;62348;51.412;5.436;2022-10-17T01:57:03;16.80;;;13.15;;
73980;SDS011;62348;51.412;5.436;2022-10-17T01:59:35;15.20;;;13.05;;
73980;SDS011;62348;51.412;5.436;2022-10-17T02:02:05;15.95;;;12.40;;
73980;SDS011;62348;51.412;5.436;2022-10-17T02:04:31;17.98;;;13.32;;
73980;SDS011;62348;51.412;5.436;2022-10-17T02:07:04;18.52;;;13.73;;
73980;SDS011;62348;51.412;5.436;2022-10-17T02:09:34;17.17;;;12.77;;
73980;SDS011;62348;51.412;5.436;2022-10-17T02:12:03;16.33;;;14.35;;
73980;SDS011;62348;51.412;5.436;2022-10-17T02:20:33;20.60;;;12.73;;
73980;SDS011;62348;51.412;5.436;2022-10-17T02:25:47;15.40;;;11.70;;
73980;SDS011;62348;51.412;5.436;2022-10-17T02:28:20;16.67;;;12.18;;
73980;SDS011;62348;51.412;5.436;2022-10-17T02:36:18;13.63;;;10.90;;
73980;SDS011;62348;51.412;5.436;2022-10-17T02:38:47;13.70;;;11.70;;
73980;SDS011;62348;51.412;5.436;2022-10-17T02:41:15;16.90;;;10.63;;
73980;SDS011;62348;51.412;5.436;2022-10-17T02:43:44;14.65;;;10.88;;
73980;SDS011;62348;51.412;5.436;2022-10-17T02:46:14;14.75;;;10.70;;
73980;SDS011;62348;51.412;5.436;2022-10-17T02:48:55;12.70;;;10.75;;
73980;SDS011;62348;51.412;5.436;2022-10-17T02:51:27;13.10;;;10.35;;
73980;SDS011;62348;51.412;5.436;2022-10-17T02:56:42;10.80;;;9.57;;
73980;SDS011;62348;51.412;5.436;2022-10-17T02:59:14;13.13;;;11.45;;
73980;SDS011;62348;51.412;5.436;2022-10-17T03:01:44;12.27;;;10.25;;
73980;SDS011;62348;51.412;5.436;2022-10-17T03:04:12;12.05;;;10.80;;
73980;SDS011;62348;51.412;5.436;2022-10-17T03:06:39;17.58;;;11.65;;
73980;SDS011;62348;51.412;5.436;2022-10-17T03:09:05;15.98;;;10.90;;
73980;SDS011;62348;51.412;5.436;2022-10-17T03:11:32;14.15;;;11.40;;
73980;SDS011;62348;51.412;5.436;2022-10-17T03:13:57;12.50;;;10.93;;
73980;SDS011;62348;51.412;5.436;2022-10-17T03:16:23;14.95;;;12.45;;
73980;SDS011;62348;51.412;5.436;2022-10-17T03:18:48;13.73;;;11.48;;
73980;SDS011;62348;51.412;5.436;2022-10-17T03:21:14;14.25;;;10.48;;
73980;SDS011;62348;51.412;5.436;2022-10-17T03:23:39;15.23;;;10.93;;
73980;SDS011;62348;51.412;5.436;2022-10-17T03:26:05;13.07;;;11.63;;
73980;SDS011;62348;51.412;5.436;2022-10-17T03:28:31;15.02;;;11.80;;
73980;SDS011;62348;51.412;5.436;2022-10-17T03:30:56;15.40;;;11.85;;
73980;SDS011;62348;51.412;5.436;2022-10-17T03:33:21;15.77;;;12.35;;
73980;SDS011;62348;51.412;5.436;2022-10-17T03:35:47;20.77;;;12.77;;
73980;SDS011;62348;51.412;5.436;2022-10-17T03:38:12;14.15;;;11.65;;
73980;SDS011;62348;51.412;5.436;2022-10-17T03:40:38;19.45;;;12.38;;
73980;SDS011;62348;51.412;5.436;2022-10-17T03:43:03;17.00;;;12.00;;
73980;SDS011;62348;51.412;5.436;2022-10-17T03:45:28;15.98;;;12.60;;
73980;SDS011;62348;51.412;5.436;2022-10-17T03:47:54;14.73;;;12.23;;
73980;SDS011;62348;51.412;5.436;2022-10-17T03:50:19;19.95;;;12.75;;
73980;SDS011;62348;51.412;5.436;2022-10-17T03:52:45;16.23;;;11.45;;
73980;SDS011;62348;51.412;5.436;2022-10-17T03:55:12;14.63;;;11.32;;
73980;SDS011;62348;51.412;5.436;2022-10-17T03:57:37;12.40;;;11.10;;
73980;SDS011;62348;51.412;5.436;2022-10-17T04:00:03;14.10;;;11.30;;
73980;SDS011;62348;51.412;5.436;2022-10-17T04:02:29;16.05;;;12.15;;
73980;SDS011;62348;51.412;5.436;2022-10-17T04:04:54;16.25;;;10.48;;
73980;SDS011;62348;51.412;5.436;2022-10-17T04:07:20;13.40;;;11.80;;
73980;SDS011;62348;51.412;5.436;2022-10-17T04:09:45;14.57;;;11.93;;
73980;SDS011;62348;51.412;5.436;2022-10-17T04:12:10;13.40;;;12.02;;
73980;SDS011;62348;51.412;5.436;2022-10-17T04:14:36;15.18;;;12.35;;
73980;SDS011;62348;51.412;5.436;2022-10-17T04:17:01;13.95;;;11.45;;
73980;SDS011;62348;51.412;5.436;2022-10-17T04:19:27;15.65;;;12.02;;
73980;SDS011;62348;51.412;5.436;2022-10-17T04:21:52;16.23;;;12.82;;
73980;SDS011;62348;51.412;5.436;2022-10-17T04:24:18;17.60;;;11.63;;
73980;SDS011;62348;51.412;5.436;2022-10-17T04:26:43;17.20;;;13.18;;
73980;SDS011;62348;51.412;5.436;2022-10-17T04:29:09;14.43;;;11.85;;
73980;SDS011;62348;51.412;5.436;2022-10-17T04:31:35;17.33;;;13.02;;
73980;SDS011;62348;51.412;5.436;2022-10-17T04:34:00;18.00;;;12.52;;
73980;SDS011;62348;51.412;5.436;2022-10-17T04:36:25;14.85;;;12.05;;
73980;SDS011;62348;51.412;5.436;2022-10-17T04:38:51;13.18;;;11.60;;
73980;SDS011;62348;51.412;5.436;2022-10-17T04:41:16;16.33;;;10.98;;
73980;SDS011;62348;51.412;5.436;2022-10-17T04:43:42;13.55;;;10.77;;
73980;SDS011;62348;51.412;5.436;2022-10-17T04:46:09;14.02;;;11.60;;
73980;SDS011;62348;51.412;5.436;2022-10-17T04:48:36;18.92;;;12.10;;
73980;SDS011;62348;51.412;5.436;2022-10-17T04:51:03;12.50;;;10.32;;
73980;SDS011;62348;51.412;5.436;2022-10-17T04:53:31;13.02;;;10.25;;
73980;SDS011;62348;51.412;5.436;2022-10-17T04:55:58;16.80;;;10.82;;
73980;SDS011;62348;51.412;5.436;2022-10-17T04:58:23;11.85;;;10.07;;
73980;SDS011;62348;51.412;5.436;2022-10-17T05:00:49;13.63;;;10.05;;
73980;SDS011;62348;51.412;5.436;2022-10-17T05:03:14;13.10;;;10.00;;
73980;SDS011;62348;51.412;5.436;2022-10-17T05:05:40;14.20;;;10.77;;
73980;SDS011;62348;51.412;5.436;2022-10-17T05:08:07;15.93;;;11.73;;
73980;SDS011;62348;51.412;5.436;2022-10-17T05:10:37;14.98;;;10.55;;
73980;SDS011;62348;51.412;5.436;2022-10-17T05:13:07;13.30;;;10.52;;
73980;SDS011;62348;51.412;5.436;2022-10-17T05:15:34;14.35;;;10.10;;
73980;SDS011;62348;51.412;5.436;2022-10-17T05:18:00;17.08;;;11.48;;
73980;SDS011;62348;51.412;5.436;2022-10-17T05:20:26;15.63;;;10.32;;
73980;SDS011;62348;51.412;5.436;2022-10-17T05:22:51;12.93;;;10.65;;
73980;SDS011;62348;51.412;5.436;2022-10-17T05:25:17;17.15;;;10.45;;
73980;SDS011;62348;51.412;5.436;2022-10-17T05:27:43;14.40;;;10.07;;
73980;SDS011;62348;51.412;5.436;2022-10-17T05:30:09;15.27;;;10.30;;
73980;SDS011;62348;51.412;5.436;2022-10-17T05:32:34;12.98;;;11.07;;
73980;SDS011;62348;51.412;5.436;2022-10-17T05:35:00;30.55;;;11.32;;
73980;SDS011;62348;51.412;5.436;2022-10-17T05:37:27;16.52;;;10.68;;
73980;SDS011;62348;51.412;5.436;2022-10-17T05:39:53;13.65;;;10.85;;
73980;SDS011;62348;51.412;5.436;2022-10-17T05:42:19;16.83;;;10.63;;
73980;SDS011;62348;51.412;5.436;2022-10-17T05:44:44;15.88;;;10.98;;
73980;SDS011;62348;51.412;5.436;2022-10-17T05:47:09;15.38;;;11.20;;
73980;SDS011;62348;51.412;5.436;2022-10-17T05:49:35;12.82;;;10.23;;
73980;SDS011;62348;51.412;5.436;2022-10-17T05:52:00;13.60;;;10.57;;
73980;SDS011;62348;51.412;5.436;2022-10-17T05:54:26;11.93;;;9.30;;
73980;SDS011;62348;51.412;5.436;2022-10-17T05:56:52;14.07;;;10.10;;
73980;SDS011;62348;51.412;5.436;2022-10-17T05:59:19;12.48;;;10.57;;
73980;SDS011;62348;51.412;5.436;2022-10-17T06:01:44;12.38;;;10.43;;
73980;SDS011;62348;51.412;5.436;2022-10-17T06:04:10;14.80;;;10.60;;
73980;SDS011;62348;51.412;5.436;2022-10-17T06:06:35;12.63;;;9.55;;
73980;SDS011;62348;51.412;5.436;2022-10-17T06:09:01;13.15;;;10.07;;
73980;SDS011;62348;51.412;5.436;2022-10-17T06:11:28;11.60;;;10.38;;
73980;SDS011;62348;51.412;5.436;2022-10-17T06:13:53;10.60;;;9.50;;
73980;SDS011;62348;51.412;5.436;2022-10-17T06:16:18;12.30;;;10.23;;
73980;SDS011;62348;51.412;5.436;2022-10-17T06:18:44;13.27;;;10.88;;
73980;SDS011;62348;51.412;5.436;2022-10-17T06:21:10;12.32;;;9.77;;
73980;SDS011;62348;51.412;5.436;2022-10-17T06:23:36;13.85;;;10.45;;
73980;SDS011;62348;51.412;5.436;2022-10-17T06:26:02;15.18;;;11.02;;
73980;SDS011;62348;51.412;5.436;2022-10-17T06:28:29;11.60;;;9.80;;
73980;SDS011;62348;51.412;5.436;2022-10-17T06:30:55;11.98;;;10.48;;
73980;SDS011;62348;51.412;5.436;2022-10-17T06:33:20;11.82;;;10.25;;
73980;SDS011;62348;51.412;5.436;2022-10-17T06:35:53;13.68;;;9.52;;
73980;SDS011;62348;51.412;5.436;2022-10-17T06:38:20;17.13;;;10.57;;
73980;SDS011;62348;51.412;5.436;2022-10-17T06:40:46;13.60;;;10.73;;
73980;SDS011;62348;51.412;5.436;2022-10-17T06:43:12;15.75;;;11.32;;
73980;SDS011;62348;51.412;5.436;2022-10-17T06:45:38;14.90;;;11.65;;
73980;SDS011;62348;51.412;5.436;2022-10-17T06:48:04;14.45;;;10.82;;
73980;SDS011;62348;51.412;5.436;2022-10-17T06:50:30;15.57;;;11.75;;
73980;SDS011;62348;51.412;5.436;2022-10-17T06:52:55;14.77;;;11.55;;
73980;SDS011;62348;51.412;5.436;2022-10-17T06:55:20;13.07;;;10.43;;
73980;SDS011;62348;51.412;5.436;2022-10-17T06:57:46;16.77;;;12.27;;
73980;SDS011;62348;51.412;5.436;2022-10-17T07:00:11;15.63;;;11.93;;
73980;SDS011;62348;51.412;5.436;2022-10-17T07:02:37;16.60;;;11.55;;
73980;SDS011;62348;51.412;5.436;2022-10-17T07:05:02;12.50;;;10.18;;
73980;SDS011;62348;51.412;5.436;2022-10-17T07:07:31;15.35;;;11.25;;
73980;SDS011;62348;51.412;5.436;2022-10-17T07:09:57;15.05;;;10.98;;
73980;SDS011;62348;51.412;5.436;2022-10-17T07:12:22;16.90;;;10.50;;
73980;SDS011;62348;51.412;5.436;2022-10-17T07:14:48;19.95;;;11.27;;
73980;SDS011;62348;51.412;5.436;2022-10-17T07:17:14;15.57;;;10.80;;
73980;SDS011;62348;51.412;5.436;2022-10-17T07:19:40;13.52;;;9.70;;
73980;SDS011;62348;51.412;5.436;2022-10-17T07:22:07;15.40;;;10.90;;
73980;SDS011;62348;51.412;5.436;2022-10-17T07:24:33;14.23;;;10.63;;
73980;SDS011;62348;51.412;5.436;2022-10-17T07:26:58;13.38;;;11.55;;
73980;SDS011;62348;51.412;5.436;2022-10-17T07:29:24;13.68;;;10.02;;
73980;SDS011;62348;51.412;5.436;2022-10-17T07:31:49;16.70;;;10.88;;
73980;SDS011;62348;51.412;5.436;2022-10-17T07:34:16;17.58;;;11.15;;
73980;SDS011;62348;51.412;5.436;2022-10-17T07:36:41;14.10;;;10.20;;
73980;SDS011;62348;51.412;5.436;2022-10-17T07:39:07;13.93;;;9.85;;
73980;SDS011;62348;51.412;5.436;2022-10-17T07:41:32;11.90;;;9.68;;
73980;SDS011;62348;51.412;5.436;2022-10-17T07:43:58;11.82;;;9.18;;
73980;SDS011;62348;51.412;5.436;2022-10-17T07:46:23;13.48;;;9.55;;
73980;SDS011;62348;51.412;5.436;2022-10-17T07:48:48;12.20;;;8.52;;
73980;SDS011;62348;51.412;5.436;2022-10-17T07:51:14;19.83;;;9.95;;
73980;SDS011;62348;51.412;5.436;2022-10-17T07:53:41;17.23;;;9.35;;
73980;SDS011;62348;51.412;5.436;2022-10-17T07:56:08;11.77;;;9.52;;
73980;SDS011;62348;51.412;5.436;2022-10-17T07:58:35;12.73;;;7.95;;
73980;SDS011;62348;51.412;5.436;2022-10-17T08:01:02;14.10;;;9.07;;
73980;SDS011;62348;51.412;5.436;2022-10-17T08:03:30;10.55;;;8.85;;
73980;SDS011;62348;51.412;5.436;2022-10-17T08:05:57;12.40;;;8.20;;
73980;SDS011;62348;51.412;5.436;2022-10-17T08:08:23;10.93;;;8.38;;
73980;SDS011;62348;51.412;5.436;2022-10-17T08:10:48;13.40;;;8.45;;
73980;SDS011;62348;51.412;5.436;2022-10-17T08:13:14;18.52;;;8.57;;
73980;SDS011;62348;51.412;5.436;2022-10-17T08:15:39;9.63;;;7.95;;
73980;SDS011;62348;51.412;5.436;2022-10-17T08:18:04;10.82;;;8.15;;
73980;SDS011;62348;51.412;5.436;2022-10-17T08:20:30;12.27;;;7.53;;
73980;SDS011;62348;51.412;5.436;2022-10-17T08:22:55;12.45;;;8.73;;
73980;SDS011;62348;51.412;5.436;2022-10-17T08:25:21;11.00;;;8.10;;
73980;SDS011;62348;51.412;5.436;2022-10-17T08:27:47;14.32;;;8.52;;
73980;SDS011;62348;51.412;5.436;2022-10-17T08:30:13;9.77;;;8.27;;
73980;SDS011;62348;51.412;5.436;2022-10-17T08:32:38;10.27;;;8.13;;
73980;SDS011;62348;51.412;5.436;2022-10-17T08:35:04;12.02;;;7.82;;
73980;SDS011;62348;51.412;5.436;2022-10-17T08:37:29;11.18;;;7.22;;
73980;SDS011;62348;51.412;5.436;2022-10-17T08:39:56;11.05;;;8.00;;
73980;SDS011;62348;51.412;5.436;2022-10-17T08:45:15;9.48;;;8.32;;
73980;SDS011;62348;51.412;5.436;2022-10-17T08:47:47;11.13;;;8.48;;
73980;SDS011;62348;51.412;5.436;2022-10-17T08:50:23;10.63;;;7.82;;
73980;SDS011;62348;51.412;5.436;2022-10-17T08:53:18;12.27;;;8.48;;
73980;SDS011;62348;51.412;5.436;2022-10-17T08:55:50;8.52;;;7.72;;
73980;SDS011;62348;51.412;5.436;2022-10-17T08:58:21;13.40;;;8.43;;
73980;SDS011;62348;51.412;5.436;2022-10-17T09:01:02;11.02;;;8.65;;
73980;SDS011;62348;51.412;5.436;2022-10-17T09:03:36;13.00;;;8.65;;
73980;SDS011;62348;51.412;5.436;2022-10-17T09:06:24;12.20;;;8.10;;
73980;SDS011;62348;51.412;5.436;2022-10-17T09:09:02;11.85;;;8.63;;
73980;SDS011;62348;51.412;5.436;2022-10-17T09:11:53;11.40;;;8.40;;
73980;SDS011;62348;51.412;5.436;2022-10-17T09:19:37;15.70;;;9.20;;
73980;SDS011;62348;51.412;5.436;2022-10-17T09:22:14;16.75;;;10.27;;
73980;SDS011;62348;51.412;5.436;2022-10-17T09:27:39;13.02;;;9.38;;
73980;SDS011;62348;51.412;5.436;2022-10-17T09:32:46;12.20;;;9.20;;
73980;SDS011;62348;51.412;5.436;2022-10-17T09:35:12;16.90;;;10.18;;
73980;SDS011;62348;51.412;5.436;2022-10-17T09:37:39;10.45;;;7.75;;
73980;SDS011;62348;51.412;5.436;2022-10-17T09:40:06;8.90;;;8.00;;
73980;SDS011;62348;51.412;5.436;2022-10-17T09:42:40;10.05;;;7.90;;
73980;SDS011;62348;51.412;5.436;2022-10-17T09:47:47;10.90;;;8.50;;
73980;SDS011;62348;51.412;5.436;2022-10-17T09:50:16;10.00;;;8.57;;
73980;SDS011;62348;51.412;5.436;2022-10-17T09:52:47;15.05;;;9.00;;
73980;SDS011;62348;51.412;5.436;2022-10-17T10:00:24;12.70;;;8.48;;
73980;SDS011;62348;51.412;5.436;2022-10-17T10:03:06;14.13;;;9.63;;
73980;SDS011;62348;51.412;5.436;2022-10-17T10:06:00;15.05;;;9.00;;
73980;SDS011;62348;51.412;5.436;2022-10-17T10:11:24;11.75;;;8.30;;
73980;SDS011;62348;51.412;5.436;2022-10-17T10:14:14;12.85;;;9.70;;
73980;SDS011;62348;51.412;5.436;2022-10-17T10:16:46;12.13;;;9.40;;
73980;SDS011;62348;51.412;5.436;2022-10-17T10:19:30;15.02;;;10.77;;
73980;SDS011;62348;51.412;5.436;2022-10-17T10:22:00;14.88;;;10.85;;
73980;SDS011;62348;51.412;5.436;2022-10-17T10:24:31;12.80;;;10.57;;
73980;SDS011;62348;51.412;5.436;2022-10-17T10:27:00;13.40;;;10.10;;
73980;SDS011;62348;51.412;5.436;2022-10-17T10:29:35;13.68;;;10.23;;
73980;SDS011;62348;51.412;5.436;2022-10-17T10:32:11;13.35;;;11.07;;
73980;SDS011;62348;51.412;5.436;2022-10-17T10:37:18;14.90;;;10.50;;
73980;SDS011;62348;51.412;5.436;2022-10-17T10:39:52;17.08;;;11.82;;
73980;SDS011;62348;51.412;5.436;2022-10-17T10:42:36;18.83;;;11.90;;
73980;SDS011;62348;51.412;5.436;2022-10-17T10:48:02;20.10;;;13.75;;
73980;SDS011;62348;51.412;5.436;2022-10-17T10:50:45;18.08;;;13.52;;
73980;SDS011;62348;51.412;5.436;2022-10-17T11:01:45;17.42;;;13.45;;
73980;SDS011;62348;51.412;5.436;2022-10-17T11:06:44;17.63;;;12.77;;
73980;SDS011;62348;51.412;5.436;2022-10-17T11:09:17;14.98;;;13.38;;
73980;SDS011;62348;51.412;5.436;2022-10-17T11:17:33;16.15;;;12.95;;
73980;SDS011;62348;51.412;5.436;2022-10-17T11:20:21;19.23;;;13.35;;
73980;SDS011;62348;51.412;5.436;2022-10-17T11:22:55;18.30;;;12.75;;
73980;SDS011;62348;51.412;5.436;2022-10-17T11:25:36;18.23;;;13.23;;
73980;SDS011;62348;51.412;5.436;2022-10-17T11:28:07;16.67;;;12.48;;
73980;SDS011;62348;51.412;5.436;2022-10-17T11:33:40;16.27;;;13.25;;
73980;SDS011;62348;51.412;5.436;2022-10-17T11:36:07;16.25;;;13.00;;
73980;SDS011;62348;51.412;5.436;2022-10-17T11:41:36;19.77;;;15.02;;
73980;SDS011;62348;51.412;5.436;2022-10-17T11:44:13;14.25;;;12.85;;
73980;SDS011;62348;51.412;5.436;2022-10-17T11:46:50;18.13;;;13.40;;
73980;SDS011;62348;51.412;5.436;2022-10-17T11:49:24;14.77;;;13.37;;
73980;SDS011;62348;51.412;5.436;2022-10-17T11:54:53;18.50;;;14.25;;
73980;SDS011;62348;51.412;5.436;2022-10-17T11:57:44;20.33;;;15.27;;
73980;SDS011;62348;51.412;5.436;2022-10-17T12:06:41;26.98;;;16.92;;
73980;SDS011;62348;51.412;5.436;2022-10-17T12:12:07;21.40;;;15.13;;
73980;SDS011;62348;51.412;5.436;2022-10-17T12:14:42;17.75;;;14.63;;
73980;SDS011;62348;51.412;5.436;2022-10-17T12:22:55;20.85;;;15.10;;
73980;SDS011;62348;51.412;5.436;2022-10-17T12:25:30;17.67;;;14.95;;
73980;SDS011;62348;51.412;5.436;2022-10-17T12:28:02;19.75;;;14.55;;
73980;SDS011;62348;51.412;5.436;2022-10-17T12:38:45;27.30;;;15.50;;
73980;SDS011;62348;51.412;5.436;2022-10-17T12:41:12;18.88;;;16.40;;
73980;SDS011;62348;51.412;5.436;2022-10-17T12:43:45;21.33;;;15.70;;
73980;SDS011;62348;51.412;5.436;2022-10-17T12:49:18;22.42;;;16.35;;
73980;SDS011;62348;51.412;5.436;2022-10-17T12:52:05;20.30;;;16.45;;
73980;SDS011;62348;51.412;5.436;2022-10-17T12:54:58;19.00;;;16.48;;
73980;SDS011;62348;51.412;5.436;2022-10-17T12:58:01;25.95;;;16.77;;
73980;SDS011;62348;51.412;5.436;2022-10-17T13:03:21;22.77;;;16.77;;
73980;SDS011;62348;51.412;5.436;2022-10-17T13:05:51;24.48;;;18.35;;
73980;SDS011;62348;51.412;5.436;2022-10-17T13:08:19;20.33;;;16.50;;
73980;SDS011;62348;51.412;5.436;2022-10-17T13:10:48;21.40;;;16.00;;
73980;SDS011;62348;51.412;5.436;2022-10-17T13:13:37;21.20;;;14.98;;
73980;SDS011;62348;51.412;5.436;2022-10-17T13:16:07;20.63;;;14.88;;
73980;SDS011;62348;51.412;5.436;2022-10-17T13:18:33;21.40;;;13.65;;
73980;SDS011;62348;51.412;5.436;2022-10-17T13:23:28;19.00;;;13.88;;
73980;SDS011;62348;51.412;5.436;2022-10-17T13:26:44;18.15;;;13.13;;
73980;SDS011;62348;51.412;5.436;2022-10-17T13:31:35;17.10;;;12.93;;
73980;SDS011;62348;51.412;5.436;2022-10-17T13:34:03;14.48;;;12.68;;
73980;SDS011;62348;51.412;5.436;2022-10-17T13:36:40;18.48;;;13.63;;
73980;SDS011;62348;51.412;5.436;2022-10-17T13:39:08;17.08;;;13.85;;
73980;SDS011;62348;51.412;5.436;2022-10-17T13:41:38;22.98;;;13.95;;
73980;SDS011;62348;51.412;5.436;2022-10-17T13:44:08;16.85;;;13.10;;
73980;SDS011;62348;51.412;5.436;2022-10-17T13:46:37;20.77;;;14.07;;
73980;SDS011;62348;51.412;5.436;2022-10-17T13:49:11;18.58;;;13.60;;
73980;SDS011;62348;51.412;5.436;2022-10-17T13:51:46;18.52;;;13.70;;
73980;SDS011;62348;51.412;5.436;2022-10-17T13:57:04;24.83;;;15.43;;
73980;SDS011;62348;51.412;5.436;2022-10-17T13:59:40;26.50;;;17.40;;
73980;SDS011;62348;51.412;5.436;2022-10-17T14:02:29;20.30;;;14.90;;
73980;SDS011;62348;51.412;5.436;2022-10-17T14:07:45;21.52;;;15.13;;
73980;SDS011;62348;51.412;5.436;2022-10-17T14:12:44;23.50;;;16.15;;
73980;SDS011;62348;51.412;5.436;2022-10-17T14:15:12;20.90;;;15.52;;
73980;SDS011;62348;51.412;5.436;2022-10-17T14:17:39;18.95;;;15.52;;
73980;SDS011;62348;51.412;5.436;2022-10-17T14:20:07;20.02;;;15.00;;
73980;SDS011;62348;51.412;5.436;2022-10-17T14:22:41;19.80;;;15.00;;
73980;SDS011;62348;51.412;5.436;2022-10-17T14:25:25;19.95;;;15.45;;
73980;SDS011;62348;51.412;5.436;2022-10-17T14:28:16;20.17;;;14.27;;
73980;SDS011;62348;51.412;5.436;2022-10-17T14:30:43;18.95;;;14.43;;
73980;SDS011;62348;51.412;5.436;2022-10-17T14:35:55;19.55;;;14.07;;
73980;SDS011;62348;51.412;5.436;2022-10-17T14:38:23;20.02;;;14.60;;
73980;SDS011;62348;51.412;5.436;2022-10-17T14:40:51;17.90;;;14.10;;
73980;SDS011;62348;51.412;5.436;2022-10-17T14:43:19;16.92;;;13.50;;
73980;SDS011;62348;51.412;5.436;2022-10-17T14:45:47;24.98;;;14.07;;
73980;SDS011;62348;51.412;5.436;2022-10-17T14:48:14;18.10;;;13.90;;
73980;SDS011;62348;51.412;5.436;2022-10-17T14:51:03;19.60;;;14.43;;
73980;SDS011;62348;51.412;5.436;2022-10-17T14:53:35;21.48;;;14.05;;
73980;SDS011;62348;51.412;5.436;2022-10-17T14:56:03;18.05;;;13.85;;
73980;SDS011;62348;51.412;5.436;2022-10-17T14:58:44;18.92;;;13.43;;
73980;SDS011;62348;51.412;5.436;2022-10-17T15:01:09;18.10;;;13.48;;
73980;SDS011;62348;51.412;5.436;2022-10-17T15:03:34;17.52;;;13.43;;
73980;SDS011;62348;51.412;5.436;2022-10-17T15:06:08;18.20;;;13.38;;
73980;SDS011;62348;51.412;5.436;2022-10-17T15:08:42;21.92;;;14.48;;
73980;SDS011;62348;51.412;5.436;2022-10-17T15:11:08;15.68;;;13.30;;
73980;SDS011;62348;51.412;5.436;2022-10-17T15:13:35;20.17;;;13.68;;
73980;SDS011;62348;51.412;5.436;2022-10-17T15:16:00;20.50;;;13.63;;
73980;SDS011;62348;51.412;5.436;2022-10-17T15:18:26;17.00;;;13.35;;
73980;SDS011;62348;51.412;5.436;2022-10-17T15:20:51;16.85;;;14.18;;
73980;SDS011;62348;51.412;5.436;2022-10-17T15:23:17;20.90;;;15.63;;
73980;SDS011;62348;51.412;5.436;2022-10-17T15:25:42;17.60;;;14.40;;
73980;SDS011;62348;51.412;5.436;2022-10-17T15:28:08;21.45;;;14.10;;
73980;SDS011;62348;51.412;5.436;2022-10-17T15:30:36;20.70;;;13.48;;
73980;SDS011;62348;51.412;5.436;2022-10-17T15:33:02;16.13;;;13.60;;
73980;SDS011;62348;51.412;5.436;2022-10-17T15:35:28;20.38;;;13.82;;
73980;SDS011;62348;51.412;5.436;2022-10-17T15:37:53;20.40;;;14.27;;
73980;SDS011;62348;51.412;5.436;2022-10-17T15:40:20;19.73;;;14.63;;
73980;SDS011;62348;51.412;5.436;2022-10-17T15:42:47;21.02;;;14.50;;
73980;SDS011;62348;51.412;5.436;2022-10-17T15:45:14;18.73;;;13.90;;
73980;SDS011;62348;51.412;5.436;2022-10-17T15:47:42;18.55;;;14.95;;
73980;SDS011;62348;51.412;5.436;2022-10-17T15:50:13;21.13;;;13.70;;
73980;SDS011;62348;51.412;5.436;2022-10-17T15:52:39;19.85;;;14.85;;
73980;SDS011;62348;51.412;5.436;2022-10-17T15:55:05;20.27;;;14.27;;
73980;SDS011;62348;51.412;5.436;2022-10-17T15:57:33;17.88;;;14.77;;
73980;SDS011;62348;51.412;5.436;2022-10-17T16:00:00;21.77;;;14.05;;
73980;SDS011;62348;51.412;5.436;2022-10-17T16:02:25;21.75;;;14.60;;
73980;SDS011;62348;51.412;5.436;2022-10-17T16:04:51;18.30;;;14.07;;
73980;SDS011;62348;51.412;5.436;2022-10-17T16:07:18;22.20;;;14.23;;
73980;SDS011;62348;51.412;5.436;2022-10-17T16:09:44;18.42;;;14.80;;
73980;SDS011;62348;51.412;5.436;2022-10-17T16:12:17;20.23;;;14.23;;
73980;SDS011;62348;51.412;5.436;2022-10-17T16:14:47;22.45;;;15.65;;
73980;SDS011;62348;51.412;5.436;2022-10-17T16:17:14;17.10;;;13.75;;
73980;SDS011;62348;51.412;5.436;2022-10-17T16:19:40;17.88;;;13.48;;
73980;SDS011;62348;51.412;5.436;2022-10-17T16:22:09;18.55;;;14.75;;
73980;SDS011;62348;51.412;5.436;2022-10-17T16:24:44;17.05;;;13.98;;
73980;SDS011;62348;51.412;5.436;2022-10-17T16:27:09;21.23;;;14.75;;
73980;SDS011;62348;51.412;5.436;2022-10-17T16:29:34;18.70;;;14.93;;
73980;SDS011;62348;51.412;5.436;2022-10-17T16:32:00;15.10;;;13.50;;
73980;SDS011;62348;51.412;5.436;2022-10-17T16:34:25;15.82;;;12.57;;
73980;SDS011;62348;51.412;5.436;2022-10-17T16:36:51;18.20;;;13.75;;
73980;SDS011;62348;51.412;5.436;2022-10-17T16:39:16;18.08;;;13.88;;
73980;SDS011;62348;51.412;5.436;2022-10-17T16:41:41;18.58;;;13.90;;
73980;SDS011;62348;51.412;5.436;2022-10-17T16:44:07;15.88;;;13.20;;
73980;SDS011;62348;51.412;5.436;2022-10-17T16:46:37;17.15;;;13.30;;